Glen Dale, West Virginia
Current Conditions -  °F | °C
As of 6:53 PM on Monday 24 Nov 2014 (Local Time) from KHLG Reporting Station
Clear Clear  
Wind Chill: 54°   Ceiling: Unl
Heat Index: 54°   Visibility: 10mi
Dew Point: 39°   Wind: 15mph
Humidity: 57%   Direction: 260°W
Pressure: 29.68"   Gusts: 23mph
Location:  39.95°N, 80.76°W
Report Text: KHLG 242353Z 26013G20KT 10SM CLR 12/04 A2968 RMK AO2 PK WND 25027/2301 SLP052 60000 T01220039 10206 20122 51050
Loading
Personal Weather Stations






























Interactive Weather Map New forecast layout! Learn more

10-Day Weather Forecast

Advertisements
Track Severe Weather on mobile